Main page
METAR-TAF:

METAR-TAF

Airports :

Oil platform

Goeree Le, Netherlands

latitude: 51-55-33N, longitude: 3-40-12E, elevation: 19 m

Current weather observation

The report was made 31 minutes ago, at 07:25 UTC
Wind 4 kt from the Northeast, varying between North and East/Northeast
Temperature 7°C
Humidity 76%
Pressure 1029 hPa
Visibility 10 km or more

METAR: EHSC 240725Z AUTO 04004KT 360V060 9999 ///////// 07/03 Q1029 W09/H6

Time: 08:56 (07:56 UTC)


TAF: missing

Weather observations and forecasts of more than 4000 airports (METAR and TAF reports).

The available stations are represented by yellow and red dots on the map.

Hover mouse over dot to see the name of the station.

Then click to see weather observations and forecasts.

To change the map : click on the green buttons with a black cross to zoom in, on the green button with a dash to zoom out, or on the green arrows for adjacent maps.


METAR-TAF: